Rechercher aéroport 
image banner adimage banner adimage banner ad
image banner ad

9CA3 - Recreation And Conference Center

Situé à City Of Industry, United States

ICAO - 9CA3, IATA -

Données fournies par Airmate  

Information générale

Coordonnées: N34°1'14" W117°55'39"
Élévation : 701 feet MSL.
Variation magnétique : 14° East
Voir autres Aéroports à California

Données opérationnelles

Special qualification required
Heure actuelle UTC:
Heure actuelle locale:
Météo à : KEMT - San Gabriel Valley ( 12 km )
METAR: KEMT 292245Z 21011KT 10SM CLR 32/13 A2985
Voir NOTAMs / SUP AIP / TFR affectant cet aéroport [VIEW]
Fréquences de communication: [VIEW]

Pistes:

Coordonnées de l'aéroport

Adresse: City Of Industry United States

Vue satellite de 9CA3